Time;durP1;ratioP1;P1;durP2;ratioP2;P2;SDS_P1;SDS_P2;PMS_P1;PMS_P2;Temp;Humidity;BMP_temperature;BMP_pressure;BME280_temperature;BME280_humidity;BME280_pressure;Samples;Min_cycle;Max_cycle;Signal;HPM_P1;HPM_P2
2021/10/27 00:00:10;;;;;;;14.27;7.72;;;4.80;57.20;;;;;;5055724;28;20519;-37
2021/10/27 00:02:35;;;;;;;14.63;7.88;;;4.80;57.40;;;;;;5054840;28;20036;-38
2021/10/27 00:05:01;;;;;;;16.45;7.60;;;4.80;57.40;;;;;;5055669;28;20397;-33
2021/10/27 00:07:27;;;;;;;15.90;7.90;;;4.80;57.50;;;;;;5054888;28;20475;-35
2021/10/27 00:09:52;;;;;;;14.23;8.07;;;4.80;57.60;;;;;;5055473;28;20033;-33
2021/10/27 00:12:18;;;;;;;18.50;8.95;;;4.70;57.60;;;;;;5055214;28;20029;-38
2021/10/27 00:14:44;;;;;;;13.15;7.88;;;4.70;57.70;;;;;;5055423;28;20041;-39
2021/10/27 00:17:10;;;;;;;17.83;8.05;;;4.70;57.70;;;;;;5055186;28;20060;-34
2021/10/27 00:19:35;;;;;;;13.90;7.20;;;4.60;57.70;;;;;;5055424;28;20306;-33
2021/10/27 00:22:01;;;;;;;16.50;7.90;;;4.60;57.90;;;;;;5054740;28;20079;-37
2021/10/27 00:24:27;;;;;;;17.63;7.85;;;4.60;58.00;;;;;;5055131;28;20410;-40
2021/10/27 00:26:53;;;;;;;17.05;8.38;;;4.60;58.00;;;;;;5055660;28;20116;-33
2021/10/27 00:29:19;;;;;;;16.83;8.25;;;4.50;58.00;;;;;;5059079;28;20055;-38
2021/10/27 00:31:45;;;;;;;11.70;7.30;;;4.50;58.20;;;;;;5058714;28;20324;-42
2021/10/27 00:34:11;;;;;;;11.45;7.60;;;4.50;58.30;;;;;;5058747;28;20037;-38
2021/10/27 00:36:37;;;;;;;14.90;8.35;;;4.40;58.30;;;;;;5058151;28;20303;-33
2021/10/27 00:39:03;;;;;;;14.20;7.68;;;4.40;58.30;;;;;;5058956;28;20290;-34
2021/10/27 00:41:29;;;;;;;17.67;8.10;;;4.40;58.50;;;;;;5058467;28;20436;-38
2021/10/27 00:43:55;;;;;;;14.65;8.15;;;4.40;58.60;;;;;;5058294;28;20022;-32
2021/10/27 00:46:23;;;;;;;17.45;8.13;;;4.30;58.70;;;;;;5058314;28;20053;-38
2021/10/27 00:48:50;;;;;;;15.55;8.10;;;4.30;58.80;;;;;;5058173;28;20051;-32
2021/10/27 00:51:16;;;;;;;15.13;8.32;;;4.30;59.00;;;;;;5058248;28;20029;-40
2021/10/27 00:53:43;;;;;;;13.35;7.93;;;4.20;59.00;;;;;;5058053;28;20029;-38
2021/10/27 00:56:09;;;;;;;17.60;8.35;;;4.20;59.10;;;;;;5058071;28;20056;-33
2021/10/27 00:58:36;;;;;;;14.20;7.75;;;4.20;59.20;;;;;;5057766;28;20040;-34
2021/10/27 01:01:03;;;;;;;17.80;8.05;;;4.20;59.10;;;;;;5058149;28;20025;-34
2021/10/27 01:03:29;;;;;;;12.75;7.72;;;4.20;59.30;;;;;;5058255;28;20470;-35
2021/10/27 01:05:55;;;;;;;16.88;8.00;;;4.20;59.20;;;;;;5058407;28;20025;-33
2021/10/27 01:08:21;;;;;;;14.18;8.90;;;4.20;59.20;;;;;;5058065;28;20199;-33
2021/10/27 01:10:47;;;;;;;16.48;9.73;;;4.20;59.30;;;;;;5058396;28;20464;-33
2021/10/27 01:13:13;;;;;;;20.50;9.15;;;4.20;59.40;;;;;;5057831;28;20104;-33
2021/10/27 01:15:40;;;;;;;15.35;8.77;;;4.20;59.40;;;;;;5058300;28;20051;-39
2021/10/27 01:18:06;;;;;;;15.90;8.00;;;4.10;59.50;;;;;;5057512;28;20112;-33
2021/10/27 01:20:32;;;;;;;21.83;9.48;;;4.10;59.50;;;;;;5058194;28;20098;-39
2021/10/27 01:22:58;;;;;;;15.85;9.20;;;4.10;59.60;;;;;;5057294;28;20045;-38
2021/10/27 01:25:23;;;;;;;17.95;8.70;;;4.10;59.80;;;;;;5057942;28;20301;-33
2021/10/27 01:27:49;;;;;;;15.73;8.45;;;4.00;59.80;;;;;;5057466;28;20087;-40
2021/10/27 01:30:20;;;;;;;15.82;8.73;;;4.00;59.80;;;;;;5058030;28;20033;-32
2021/10/27 01:32:47;;;;;;;22.80;8.52;;;4.00;60.00;;;;;;5057244;28;20107;-33
2021/10/27 01:35:14;;;;;;;18.60;8.80;;;4.00;60.00;;;;;;5057867;28;20361;-33
2021/10/27 01:37:41;;;;;;;20.33;8.98;;;3.90;60.30;;;;;;5057433;28;20031;-33
2021/10/27 01:40:13;;;;;;;19.58;9.02;;;3.90;60.40;;;;;;5057093;28;20033;-38
2021/10/27 01:42:39;;;;;;;13.40;8.00;;;3.80;60.50;;;;;;5057286;28;20033;-38
2021/10/27 01:45:06;;;;;;;14.75;8.30;;;3.80;60.50;;;;;;5057567;28;20036;-32
2021/10/27 01:47:33;;;;;;;18.77;9.05;;;3.70;60.60;;;;;;5056938;28;20025;-33
2021/10/27 01:50:00;;;;;;;20.48;8.07;;;3.70;60.80;;;;;;5057705;28;20053;-38
2021/10/27 01:52:26;;;;;;;18.95;9.27;;;3.70;61.00;;;;;;5057199;28;20037;-33
2021/10/27 01:54:51;;;;;;;16.35;8.52;;;3.70;61.10;;;;;;5056991;28;20083;-34
2021/10/27 01:57:18;;;;;;;15.88;10.05;;;3.60;61.20;;;;;;5056688;28;20068;-33
2021/10/27 01:59:44;;;;;;;21.17;9.63;;;3.60;61.30;;;;;;5057238;28;20028;-39
2021/10/27 02:02:10;;;;;;;17.58;9.23;;;3.60;61.40;;;;;;5056518;28;20025;-39
2021/10/27 02:04:36;;;;;;;17.25;8.45;;;3.50;61.50;;;;;;5057064;28;20021;-38
2021/10/27 02:07:02;;;;;;;21.90;9.15;;;3.50;61.70;;;;;;5056702;28;20037;-40
2021/10/27 02:09:28;;;;;;;18.15;9.52;;;3.40;61.80;;;;;;5056972;28;20044;-32
2021/10/27 02:11:55;;;;;;;17.10;9.13;;;3.40;61.90;;;;;;5056566;28;20033;-38
2021/10/27 02:14:20;;;;;;;18.38;9.38;;;3.40;61.80;;;;;;5056831;28;20467;-38
2021/10/27 02:16:46;;;;;;;15.75;9.00;;;3.40;62.50;;;;;;5056336;28;20060;-33
2021/10/27 02:19:12;;;;;;;18.77;9.52;;;3.40;62.20;;;;;;5056881;28;20405;-38
2021/10/27 02:21:38;;;;;;;16.75;9.00;;;3.30;62.30;;;;;;5056129;28;20025;-38
2021/10/27 02:24:04;;;;;;;21.80;9.50;;;3.30;62.20;;;;;;5056713;28;20039;-33
2021/10/27 02:26:30;;;;;;;18.35;9.48;;;3.30;62.40;;;;;;5056319;28;20115;-37
2021/10/27 02:28:55;;;;;;;16.67;9.98;;;3.30;62.50;;;;;;5056608;28;20356;-35
2021/10/27 02:31:21;;;;;;;19.98;9.32;;;3.30;62.60;;;;;;5056082;28;20033;-38
2021/10/27 02:33:47;;;;;;;17.85;9.52;;;3.30;62.60;;;;;;5056622;28;20082;-40
2021/10/27 02:36:14;;;;;;;18.95;9.70;;;3.20;62.60;;;;;;5056598;28;20032;-33
2021/10/27 02:38:42;;;;;;;19.83;9.98;;;3.20;62.90;;;;;;5055921;28;20028;-35
2021/10/27 02:41:08;;;;;;;16.33;9.43;;;3.20;63.00;;;;;;5056486;28;20059;-38
2021/10/27 02:43:35;;;;;;;19.35;10.05;;;3.20;63.10;;;;;;5055984;28;20071;-38
2021/10/27 02:46:00;;;;;;;18.67;10.20;;;3.10;63.20;;;;;;5056161;28;20029;-38
2021/10/27 02:48:26;;;;;;;19.58;9.73;;;3.10;63.10;;;;;;5056001;28;20028;-34
2021/10/27 02:50:52;;;;;;;14.77;8.82;;;3.10;63.10;;;;;;5055668;28;20108;-33
2021/10/27 02:53:17;;;;;;;16.30;9.85;;;3.10;63.30;;;;;;5055867;28;20426;-39
2021/10/27 02:55:43;;;;;;;19.15;10.00;;;3.10;63.40;;;;;;5055940;28;20040;-33
2021/10/27 02:58:09;;;;;;;19.02;10.00;;;3.10;63.50;;;;;;5055903;28;20033;-33
2021/10/27 03:00:34;;;;;;;20.77;10.20;;;3.10;63.60;;;;;;5056462;28;20028;-39
2021/10/27 03:03:00;;;;;;;20.67;9.90;;;3.10;63.60;;;;;;5055342;28;20370;-38
2021/10/27 03:05:26;;;;;;;19.10;10.45;;;3.10;63.60;;;;;;5056128;28;20029;-33
2021/10/27 03:07:52;;;;;;;20.95;10.68;;;3.00;63.70;;;;;;5055484;28;20078;-34
2021/10/27 03:10:18;;;;;;;20.38;10.75;;;3.00;63.80;;;;;;5056131;28;20401;-38
2021/10/27 03:12:44;;;;;;;25.00;10.57;;;3.10;63.90;;;;;;5055758;28;20040;-33
2021/10/27 03:15:10;;;;;;;20.50;9.20;;;3.00;63.90;;;;;;5056174;28;20024;-32
2021/10/27 03:17:36;;;;;;;19.67;10.25;;;3.00;63.90;;;;;;5055475;28;20056;-34
2021/10/27 03:20:03;;;;;;;24.13;10.52;;;3.00;64.00;;;;;;5055878;28;20433;-33
2021/10/27 03:22:28;;;;;;;19.90;10.25;;;3.00;64.00;;;;;;5055370;28;20029;-38
2021/10/27 03:24:54;;;;;;;20.73;10.35;;;3.00;64.10;;;;;;5055961;28;20352;-39
2021/10/27 03:27:20;;;;;;;24.75;11.00;;;3.00;64.10;;;;;;5055305;28;20117;-34
2021/10/27 03:29:45;;;;;;;18.95;9.90;;;3.00;64.50;;;;;;5055520;28;20025;-38
2021/10/27 03:32:13;;;;;;;21.75;10.43;;;3.00;64.30;;;;;;5055418;28;20029;-33
2021/10/27 03:34:39;;;;;;;18.40;10.25;;;3.00;64.30;;;;;;5055465;28;20040;-37
2021/10/27 03:37:08;;;;;;;18.10;10.43;;;3.00;64.40;;;;;;5055521;28;20033;-38
2021/10/27 03:39:34;;;;;;;20.75;10.93;;;3.00;64.60;;;;;;5055750;28;20029;-33
2021/10/27 03:42:00;;;;;;;23.20;10.88;;;3.00;64.60;;;;;;5055053;28;20038;-33
2021/10/27 03:44:26;;;;;;;21.67;10.20;;;2.90;64.70;;;;;;5055505;28;20041;-38
2021/10/27 03:46:52;;;;;;;20.15;10.68;;;2.90;64.70;;;;;;5055529;28;20437;-41
2021/10/27 03:49:19;;;;;;;22.30;11.32;;;2.90;64.80;;;;;;5055689;28;20351;-42
2021/10/27 03:51:45;;;;;;;25.08;11.10;;;2.90;64.90;;;;;;5055642;28;20063;-46
2021/10/27 03:54:11;;;;;;;18.65;10.68;;;2.90;64.80;;;;;;5055196;28;20033;-47
2021/10/27 03:56:37;;;;;;;23.50;11.30;;;2.90;65.00;;;;;;5055025;28;20079;-46
2021/10/27 03:59:03;;;;;;;19.02;10.75;;;2.90;65.00;;;;;;5055188;28;20068;-45
2021/10/27 04:01:28;;;;;;;21.33;11.70;;;2.80;65.20;;;;;;5055275;28;20052;-45
2021/10/27 04:03:54;;;;;;;24.13;11.55;;;2.80;65.10;;;;;;5059089;28;20040;-40
2021/10/27 04:06:20;;;;;;;21.85;11.00;;;2.80;65.20;;;;;;5059399;28;20112;-46
2021/10/27 04:08:45;;;;;;;28.77;12.75;;;2.80;65.30;;;;;;5059010;28;20033;-45
2021/10/27 04:11:11;;;;;;;21.42;11.90;;;2.80;65.50;;;;;;5059047;28;20033;-41
2021/10/27 04:13:37;;;;;;;23.30;12.23;;;2.80;65.50;;;;;;5058562;28;20094;-41
2021/10/27 04:16:03;;;;;;;25.00;11.95;;;2.80;65.60;;;;;;5058909;28;20065;-42
2021/10/27 04:18:29;;;;;;;25.20;12.43;;;2.80;65.70;;;;;;5058367;28;20393;-46
2021/10/27 04:20:55;;;;;;;24.27;11.65;;;2.80;65.80;;;;;;5058973;28;20036;-47
2021/10/27 04:23:21;;;;;;;25.08;11.90;;;2.80;65.90;;;;;;5058547;28;20091;-46
2021/10/27 04:25:46;;;;;;;24.00;12.52;;;2.80;66.10;;;;;;5059118;28;20429;-40
2021/10/27 04:28:12;;;;;;;24.42;11.93;;;2.80;66.10;;;;;;5058339;28;20330;-38
2021/10/27 04:30:38;;;;;;;22.65;12.90;;;2.80;66.20;;;;;;5059092;28;20079;-40
2021/10/27 04:33:13;;;;;;;22.17;12.18;;;2.70;66.30;;;;;;5058696;28;20458;-46
2021/10/27 04:35:38;;;;;;;28.73;12.07;;;2.70;66.50;;;;;;5058776;28;20119;-46
2021/10/27 04:38:04;;;;;;;22.48;12.10;;;2.70;66.50;;;;;;5058415;28;20124;-46
2021/10/27 04:40:30;;;;;;;23.48;11.50;;;2.70;66.70;;;;;;5058694;28;20330;-40
2021/10/27 04:42:56;;;;;;;22.73;12.18;;;2.70;66.80;;;;;;5058062;28;20116;-39
2021/10/27 04:45:22;;;;;;;22.48;11.85;;;2.70;66.90;;;;;;5058477;28;20108;-32
2021/10/27 04:47:48;;;;;;;22.98;11.77;;;2.80;66.90;;;;;;5058338;28;20033;-33
2021/10/27 04:50:14;;;;;;;29.33;13.02;;;2.80;67.00;;;;;;5058459;28;20033;-39
2021/10/27 04:52:39;;;;;;;31.27;12.95;;;2.80;67.00;;;;;;5057528;28;20037;-40
2021/10/27 04:55:06;;;;;;;24.75;11.40;;;2.80;67.00;;;;;;5058171;28;20045;-40
2021/10/27 04:57:31;;;;;;;24.15;11.98;;;2.90;67.00;;;;;;5057723;28;20041;-39
2021/10/27 04:59:57;;;;;;;22.80;11.75;;;2.90;67.30;;;;;;5058247;28;20035;-34
2021/10/27 05:02:22;;;;;;;22.23;11.88;;;2.90;67.30;;;;;;5057587;28;20033;-35
2021/10/27 05:04:48;;;;;;;21.27;10.75;;;2.90;67.50;;;;;;5058033;28;20099;-39
2021/10/27 05:07:15;;;;;;;22.95;12.23;;;2.90;67.60;;;;;;5057743;28;20037;-34
2021/10/27 05:09:42;;;;;;;30.55;14.23;;;2.90;67.50;;;;;;5057958;28;20045;-38
2021/10/27 05:12:09;;;;;;;29.92;12.57;;;2.90;67.60;;;;;;5057610;28;20060;-39
2021/10/27 05:14:36;;;;;;;24.70;11.50;;;3.00;67.80;;;;;;5056525;28;20103;-33
2021/10/27 05:17:05;;;;;;;28.25;11.80;;;3.00;67.90;;;;;;5057458;28;20275;-34
2021/10/27 05:19:31;;;;;;;28.23;11.85;;;3.00;67.90;;;;;;5057277;28;20077;-33
2021/10/27 05:21:57;;;;;;;20.05;11.70;;;3.00;68.20;;;;;;5057248;28;20086;-38
2021/10/27 05:24:22;;;;;;;26.33;12.60;;;3.00;68.30;;;;;;5057640;28;20033;-39
2021/10/27 05:26:48;;;;;;;27.42;12.43;;;3.00;68.30;;;;;;5057179;28;20060;-34
2021/10/27 05:29:14;;;;;;;26.48;12.55;;;3.10;68.60;;;;;;5054564;28;20359;-39
2021/10/27 05:31:40;;;;;;;27.40;12.02;;;3.10;68.70;;;;;;5056422;28;20044;-33
2021/10/27 05:34:05;;;;;;;24.38;12.68;;;3.10;68.80;;;;;;5057297;28;20143;-38
2021/10/27 05:36:31;;;;;;;23.05;12.65;;;3.20;68.90;;;;;;5056579;28;20033;-39
2021/10/27 05:38:57;;;;;;;51.50;13.80;;;3.20;68.90;;;;;;5057036;28;20124;-32
2021/10/27 05:41:23;;;;;;;23.38;11.43;;;3.30;69.00;;;;;;5056724;28;20037;-38
2021/10/27 05:43:48;;;;;;;30.13;12.63;;;3.40;69.40;;;;;;5056904;28;20025;-33
2021/10/27 05:46:17;;;;;;;25.05;12.43;;;3.40;69.20;;;;;;5056839;28;20029;-38
2021/10/27 05:48:46;;;;;;;26.00;12.13;;;3.50;69.40;;;;;;5056515;28;20033;-39
2021/10/27 05:51:23;;;;;;;28.75;13.50;;;3.50;69.60;;;;;;5056754;28;20123;-32
2021/10/27 05:56:33;;;;;;;31.65;13.93;;;3.60;70.00;;;;;;5056440;28;20048;-38
2021/10/27 05:58:59;;;;;;;30.63;13.52;;;3.60;69.90;;;;;;5057049;28;20025;-33
2021/10/27 06:01:25;;;;;;;31.48;14.57;;;3.70;70.20;;;;;;5056042;28;20167;-32
2021/10/27 06:03:51;;;;;;;36.40;15.10;;;3.80;70.30;;;;;;5055182;28;20188;-39
2021/10/27 06:06:16;;;;;;;29.20;14.98;;;3.80;70.40;;;;;;5054907;28;20186;-33
2021/10/27 06:08:42;;;;;;;32.67;14.55;;;3.90;70.60;;;;;;5056379;28;20083;-33
2021/10/27 06:11:12;;;;;;;24.23;13.68;;;3.90;70.70;;;;;;5056232;28;20376;-34
2021/10/27 06:13:48;;;;;;;28.50;13.27;;;4.00;70.60;;;;;;5056292;28;20033;-39
2021/10/27 06:16:15;;;;;;;22.80;11.32;;;4.10;70.90;;;;;;5056571;28;20431;-33
2021/10/27 06:18:42;;;;;;;22.00;12.00;;;4.10;70.90;;;;;;5055950;28;20025;-33
2021/10/27 06:21:09;;;;;;;24.33;12.73;;;4.20;71.10;;;;;;5055982;28;20033;-34
2021/10/27 06:23:35;;;;;;;25.75;13.70;;;4.20;71.00;;;;;;5055884;28;20043;-34
2021/10/27 06:26:02;;;;;;;24.85;13.25;;;4.30;71.10;;;;;;5055772;28;20037;-40
2021/10/27 06:28:31;;;;;;;24.90;13.90;;;4.30;71.00;;;;;;5055504;28;20021;-38
2021/10/27 06:31:15;;;;;;;29.50;13.95;;;4.40;71.00;;;;;;5056025;28;20353;-40
2021/10/27 06:48:48;;;;;;;20.63;12.48;;;4.80;71.00;;;;;;5056064;28;20029;-39
2021/10/27 06:51:14;;;;;;;31.88;13.82;;;4.80;71.00;;;;;;5055732;28;20037;-39
2021/10/27 06:53:40;;;;;;;24.02;13.38;;;4.80;71.00;;;;;;5055712;28;20021;-37
2021/10/27 06:56:11;;;;;;;27.40;13.68;;;4.90;71.10;;;;;;5055532;28;20480;-39
2021/10/27 06:58:44;;;;;;;25.75;13.25;;;4.90;71.00;;;;;;5055290;28;20386;-34
2021/10/27 07:01:17;;;;;;;28.70;13.35;;;5.00;71.20;;;;;;5055798;28;20112;-34
2021/10/27 07:03:59;;;;;;;28.77;13.60;;;5.10;71.40;;;;;;5055339;28;20095;-40
2021/10/27 07:06:43;;;;;;;33.15;15.32;;;5.20;71.40;;;;;;5055306;28;20108;-39
2021/10/27 07:17:22;;;;;;;32.40;14.05;;;5.60;70.50;;;;;;5055398;28;20040;-34
2021/10/27 07:19:47;;;;;;;25.67;13.75;;;5.70;70.30;;;;;;5055479;28;20029;-32
2021/10/27 07:22:14;;;;;;;27.08;12.75;;;5.80;70.20;;;;;;5054748;28;20064;-35
2021/10/27 07:24:41;;;;;;;23.65;13.48;;;5.80;70.10;;;;;;5055513;28;20036;-33
2021/10/27 07:27:09;;;;;;;23.55;12.77;;;5.90;70.10;;;;;;5055158;28;20429;-40
2021/10/27 07:29:35;;;;;;;23.52;12.23;;;5.90;69.90;;;;;;5055362;28;20029;-33
2021/10/27 07:32:03;;;;;;;20.15;12.68;;;6.00;69.90;;;;;;5055501;28;20033;-33
2021/10/27 07:40:33;;;;;;;23.10;12.40;;;6.10;70.00;;;;;;5060074;28;20075;-34
2021/10/27 07:43:07;;;;;;;23.60;13.32;;;6.20;70.80;;;;;;5058942;28;20029;-32
2021/10/27 07:45:33;;;;;;;28.90;14.48;;;6.20;70.30;;;;;;5059670;28;20385;-39
2021/10/27 07:48:00;;;;;;;26.30;13.40;;;6.30;70.40;;;;;;5059444;28;20302;-33
2021/10/27 07:50:27;;;;;;;35.85;13.35;;;6.40;70.30;;;;;;5059340;28;20302;-39
2021/10/27 07:52:53;;;;;;;24.75;11.85;;;6.50;70.20;;;;;;5059003;28;20040;-39
2021/10/27 07:55:19;;;;;;;30.55;13.63;;;6.70;70.20;;;;;;5058948;28;20139;-33
2021/10/27 07:57:47;;;;;;;33.70;13.57;;;6.70;69.90;;;;;;5058821;28;20037;-33
2021/10/27 08:00:17;;;;;;;24.65;12.70;;;6.80;69.80;;;;;;5059600;28;20029;-38
2021/10/27 08:02:45;;;;;;;22.65;12.82;;;6.90;69.60;;;;;;5058777;28;20031;-39
2021/10/27 08:05:12;;;;;;;24.00;12.07;;;7.00;69.40;;;;;;5056073;28;20049;-33
2021/10/27 08:07:49;;;;;;;24.08;12.30;;;7.10;69.30;;;;;;5053001;28;20056;-38
2021/10/27 08:10:17;;;;;;;21.65;12.38;;;7.20;69.00;;;;;;5059115;28;20094;-33
2021/10/27 08:12:43;;;;;;;19.45;11.52;;;7.20;68.90;;;;;;5058093;28;20414;-39
2021/10/27 08:15:10;;;;;;;27.33;12.40;;;7.20;68.70;;;;;;5059079;28;20029;-33
2021/10/27 08:17:36;;;;;;;26.52;12.35;;;7.30;68.60;;;;;;5058324;28;20327;-39
2021/10/27 08:20:07;;;;;;;26.70;13.18;;;7.30;68.50;;;;;;5058414;28;20045;-34
2021/10/27 08:22:34;;;;;;;31.00;12.98;;;7.40;68.60;;;;;;5058431;28;20040;-38
2021/10/27 08:25:04;;;;;;;23.00;12.27;;;7.40;68.50;;;;;;5058922;28;20119;-39
2021/10/27 08:27:34;;;;;;;23.55;12.20;;;7.40;68.60;;;;;;5058036;28;20029;-39
2021/10/27 08:30:05;;;;;;;23.80;12.52;;;7.50;68.60;;;;;;5058657;28;20045;-32
2021/10/27 08:32:42;;;;;;;22.85;12.65;;;7.50;68.50;;;;;;5058302;28;20055;-33
2021/10/27 08:35:11;;;;;;;29.17;13.35;;;7.60;68.40;;;;;;5058649;28;20105;-38
2021/10/27 08:37:37;;;;;;;37.53;14.35;;;7.70;68.40;;;;;;5057742;28;20449;-38
2021/10/27 08:40:03;;;;;;;28.55;13.02;;;7.80;68.40;;;;;;5058446;28;20340;-38
2021/10/27 08:42:29;;;;;;;24.45;12.63;;;7.90;68.40;;;;;;5057591;28;20033;-37
2021/10/27 08:44:55;;;;;;;22.27;13.40;;;8.00;68.00;;;;;;5058362;28;20025;-39
2021/10/27 08:47:22;;;;;;;30.92;13.85;;;8.10;67.70;;;;;;5057513;28;20037;-39
2021/10/27 08:49:48;;;;;;;38.50;14.77;;;8.20;67.40;;;;;;5058033;28;20025;-34
2021/10/27 08:52:14;;;;;;;30.02;14.77;;;8.30;67.30;;;;;;5057689;28;20029;-39
2021/10/27 08:54:39;;;;;;;25.50;13.32;;;8.40;67.20;;;;;;5058066;28;20340;-33
2021/10/27 08:57:08;;;;;;;24.17;14.27;;;8.40;67.00;;;;;;5057779;28;20087;-33
2021/10/27 08:59:47;;;;;;;39.47;14.75;;;8.50;66.90;;;;;;5058108;28;20360;-38
2021/10/27 09:05:22;;;;;;;23.98;13.27;;;8.60;66.80;;;;;;5057950;28;20029;-39
2021/10/27 10:06:22;;;;;;;19.00;11.73;;;10.20;65.30;;;;;;5056549;28;20456;-39
2021/10/27 10:08:49;;;;;;;19.45;11.32;;;10.40;65.20;;;;;;5056717;28;20037;-33
2021/10/27 10:11:16;;;;;;;23.63;12.68;;;10.50;65.00;;;;;;5056406;28;20319;-38
2021/10/27 10:13:43;;;;;;;22.95;11.65;;;10.60;64.80;;;;;;5056126;28;20039;-38
2021/10/27 10:16:09;;;;;;;22.20;11.43;;;10.70;64.60;;;;;;5056577;28;20376;-34
2021/10/27 10:18:37;;;;;;;25.23;12.88;;;10.80;64.40;;;;;;5056001;28;20036;-39
2021/10/27 10:21:03;;;;;;;24.42;10.75;;;10.90;64.30;;;;;;5056657;28;20044;-34
2021/10/27 10:23:29;;;;;;;17.95;10.10;;;11.00;64.20;;;;;;5056236;28;20325;-39
2021/10/27 10:26:06;;;;;;;17.50;9.27;;;11.10;64.10;;;;;;5056041;28;20072;-40
2021/10/27 10:28:38;;;;;;;16.42;8.57;;;11.20;63.90;;;;;;5055772;28;20329;-40
2021/10/27 10:31:06;;;;;;;17.65;8.48;;;11.30;63.60;;;;;;5056370;28;20056;-40
2021/10/27 10:33:36;;;;;;;17.35;8.82;;;11.40;63.30;;;;;;5056144;28;20464;-33
2021/10/27 10:36:13;;;;;;;17.63;8.23;;;11.50;63.00;;;;;;5056552;28;20037;-34
2021/10/27 10:58:58;;;;;;;16.60;8.13;;;12.50;61.20;;;;;;5055411;28;20447;-40
2021/10/27 11:25:14;;;;;;;13.77;6.65;;;13.50;58.80;;;;;;5055644;28;20036;-34
2021/10/27 11:38:57;;;;;;;10.20;5.50;;;14.00;57.10;;;;;;5046808;28;20115;-33
2021/10/27 11:41:38;;;;;;;9.73;6.40;;;14.10;57.00;;;;;;5054768;28;20044;-38
2021/10/27 11:44:13;;;;;;;;;;;14.20;56.50;;;;;;5055424;28;20413;-34
2021/10/27 11:46:56;;;;;;;16.35;7.45;;;14.20;56.50;;;;;;5054865;28;19932;-39
2021/10/27 11:49:32;;;;;;;16.13;6.60;;;14.20;55.60;;;;;;5054645;28;20457;-34
2021/10/27 11:51:58;;;;;;;17.80;7.85;;;14.30;55.60;;;;;;5054948;28;20033;-34
2021/10/27 11:54:27;;;;;;;13.90;7.70;;;14.30;55.50;;;;;;5054911;28;20029;-33
2021/10/27 11:56:53;;;;;;;10.23;6.50;;;14.40;55.00;;;;;;5054916;28;20037;-39
2021/10/27 11:59:19;;;;;;;12.48;7.28;;;14.50;54.70;;;;;;5053587;28;20068;-39
2021/10/27 12:01:53;;;;;;;12.55;7.28;;;14.60;54.60;;;;;;5054966;28;20021;-34
2021/10/27 12:04:20;;;;;;;11.70;7.05;;;14.70;54.50;;;;;;5054785;28;20100;-40
2021/10/27 12:06:52;;;;;;;12.98;6.82;;;14.80;54.60;;;;;;5054830;28;20029;-34
2021/10/27 12:09:45;;;;;;;13.25;7.97;;;14.90;54.10;;;;;;5054983;28;20099;-34
2021/10/27 12:18:01;;;;;;;12.75;7.93;;;15.30;52.90;;;;;;5054688;28;20080;-34
2021/10/27 12:20:40;;;;;;;19.30;8.23;;;15.40;52.90;;;;;;5054223;28;20090;-39
2021/10/27 12:23:24;;;;;;;12.60;7.45;;;15.60;52.70;;;;;;5055791;28;20100;-34
2021/10/27 12:25:53;;;;;;;15.95;7.97;;;15.60;52.40;;;;;;5058828;28;20397;-33
2021/10/27 12:28:30;;;;;;;12.75;7.35;;;15.70;52.50;;;;;;5058427;28;20128;-38
2021/10/27 12:30:57;;;;;;;15.85;8.93;;;15.80;52.00;;;;;;5058361;28;20033;-39
2021/10/27 12:33:42;;;;;;;16.70;11.05;;;15.80;51.90;;;;;;5058188;28;20120;-34
2021/10/27 12:36:32;;;;;;;11.60;7.30;;;15.90;51.50;;;;;;5058203;28;20128;-33
2021/10/27 12:39:14;;;;;;;12.98;7.43;;;16.10;51.40;;;;;;5058616;28;20029;-39
2021/10/27 12:41:40;;;;;;;13.73;6.80;;;16.20;51.00;;;;;;5058201;28;20059;-39
2021/10/27 12:44:24;;;;;;;15.65;7.50;;;16.30;50.80;;;;;;5058185;28;20028;-34
2021/10/27 12:47:29;;;;;;;17.88;7.80;;;16.40;50.40;;;;;;5057703;28;20101;-34
2021/10/27 12:50:15;;;;;;;15.00;7.47;;;16.50;50.30;;;;;;5058309;28;20029;-34
2021/10/27 12:52:55;;;;;;;16.75;7.97;;;16.60;50.10;;;;;;5058060;28;20098;-39
2021/10/27 12:55:28;;;;;;;23.00;9.07;;;16.70;49.90;;;;;;5057578;28;20040;-40
2021/10/27 12:58:01;;;;;;;13.25;7.32;;;16.80;49.70;;;;;;5057690;28;20103;-35
2021/10/27 13:00:31;;;;;;;14.75;7.50;;;16.80;49.50;;;;;;5057772;28;20041;-40
2021/10/27 13:03:48;;;;;;;15.55;7.55;;;16.80;49.40;;;;;;5057344;28;20037;-34
2021/10/27 13:22:24;;;;;;;16.98;8.85;;;15.90;49.10;;;;;;5066864;28;20033;-38
2021/10/27 13:30:21;;;;;;;16.95;7.20;;;15.30;49.60;;;;;;5057351;28;20078;-40
2021/10/27 13:32:52;;;;;;;14.77;7.07;;;15.10;49.90;;;;;;5057096;28;20039;-34
2021/10/27 13:35:18;;;;;;;;;;;15.00;50.00;;;;;;5056718;28;20037;-33
2021/10/27 13:37:44;;;;;;;19.42;9.98;;;14.80;50.30;;;;;;5057155;28;19936;-34
2021/10/27 13:40:11;;;;;;;10.95;6.95;;;14.70;50.70;;;;;;5057191;28;20352;-34
2021/10/27 13:42:44;;;;;;;20.67;9.10;;;14.60;51.00;;;;;;5056624;28;20048;-39
2021/10/27 13:58:35;;;;;;;18.70;8.95;;;14.10;52.40;;;;;;5056320;28;20036;-40
2021/10/27 14:09:29;;;;;;;33.10;10.00;;;13.90;53.20;;;;;;5056772;28;20379;-39
2021/10/27 14:14:28;;;;;;;19.85;9.10;;;13.80;54.20;;;;;;5056461;28;20449;-40
2021/10/27 15:51:30;;;;;;;72.57;37.72;;;11.80;60.10;;;;;;5035155;28;20465;-34
2021/10/27 15:53:56;;;;;;;59.20;33.03;;;11.80;60.20;;;;;;5035382;28;20029;-39
2021/10/27 15:56:22;;;;;;;52.58;27.33;;;11.80;60.30;;;;;;5035025;28;20158;-35
2021/10/27 15:58:49;;;;;;;41.45;21.85;;;11.80;60.40;;;;;;5037487;28;20307;-39
2021/10/27 16:01:15;;;;;;;49.47;22.85;;;11.80;60.40;;;;;;5039371;28;20325;-39
2021/10/27 16:03:41;;;;;;;29.48;17.02;;;11.80;60.50;;;;;;5038768;28;20029;-40
2021/10/27 16:06:07;;;;;;;40.55;19.20;;;11.80;60.40;;;;;;5039269;28;20505;-40
2021/10/27 16:08:36;;;;;;;40.38;20.95;;;11.80;60.40;;;;;;5039098;28;20368;-33
2021/10/27 16:11:03;;;;;;;43.05;20.50;;;11.80;60.40;;;;;;5039033;28;20040;-33
2021/10/27 16:13:29;;;;;;;47.97;21.00;;;11.80;60.30;;;;;;5038842;28;20061;-38
2021/10/27 16:15:58;;;;;;;47.38;22.45;;;11.80;60.20;;;;;;5038949;28;20033;-33
2021/10/27 16:18:31;;;;;;;52.10;25.48;;;11.80;60.20;;;;;;5038770;28;20303;-34
2021/10/27 16:20:59;;;;;;;58.58;30.02;;;11.80;60.30;;;;;;5039067;28;20360;-34
2021/10/27 16:23:25;;;;;;;51.67;23.92;;;11.80;60.20;;;;;;5038389;28;20029;-34
2021/10/27 16:25:53;;;;;;;52.45;27.10;;;11.80;60.00;;;;;;5039109;28;20080;-34
2021/10/27 16:28:19;;;;;;;38.70;20.38;;;11.80;60.10;;;;;;5038363;28;20364;-33
2021/10/27 16:30:45;;;;;;;29.45;16.58;;;11.90;59.90;;;;;;5039201;28;20402;-38
2021/10/27 16:33:14;;;;;;;31.75;17.30;;;11.90;59.60;;;;;;5038465;28;20078;-39
2021/10/27 16:35:40;;;;;;;35.72;17.75;;;11.90;59.50;;;;;;5039192;28;20091;-39
2021/10/27 16:38:06;;;;;;;28.38;16.73;;;11.90;59.50;;;;;;5038674;28;20439;-34
2021/10/27 16:40:32;;;;;;;28.52;16.65;;;11.90;59.30;;;;;;5038913;28;20025;-40
2021/10/27 16:42:59;;;;;;;42.50;18.08;;;12.00;59.10;;;;;;5038551;28;20056;-33
2021/10/27 16:45:25;;;;;;;33.83;17.23;;;12.00;59.00;;;;;;5038916;28;20018;-32
2021/10/27 16:47:51;;;;;;;38.38;16.35;;;12.00;59.00;;;;;;5038314;28;20441;-34
2021/10/27 16:50:17;;;;;;;37.75;17.17;;;12.00;59.00;;;;;;5038770;28;20034;-33
2021/10/27 16:52:47;;;;;;;32.47;16.60;;;12.00;58.90;;;;;;5038118;28;20112;-33
2021/10/27 16:55:18;;;;;;;26.75;16.77;;;12.10;58.80;;;;;;5038240;28;20068;-33
2021/10/27 16:57:49;;;;;;;35.08;18.50;;;12.10;58.80;;;;;;5038022;28;20042;-38
2021/10/27 17:00:20;;;;;;;32.25;18.02;;;12.10;58.70;;;;;;5038692;28;20025;-33
2021/10/27 17:02:46;;;;;;;30.85;18.52;;;12.10;58.60;;;;;;5038050;28;20029;-33
2021/10/27 17:05:12;;;;;;;36.75;18.30;;;12.10;58.50;;;;;;5038548;28;20033;-38
2021/10/27 17:07:39;;;;;;;35.85;19.98;;;12.20;58.60;;;;;;5037907;28;20097;-33
2021/10/27 17:10:09;;;;;;;31.30;18.55;;;12.20;58.50;;;;;;5036648;28;20421;-33
2021/10/27 17:12:36;;;;;;;33.58;19.17;;;12.20;58.50;;;;;;5038108;28;20386;-33
2021/10/27 17:15:04;;;;;;;37.63;21.67;;;12.20;58.50;;;;;;5038265;28;20061;-38
2021/10/27 17:17:29;;;;;;;36.38;22.02;;;12.20;58.40;;;;;;5037664;28;20469;-33
2021/10/27 17:19:55;;;;;;;42.33;24.65;;;12.20;58.40;;;;;;5038092;28;20057;-38
2021/10/27 17:22:27;;;;;;;37.85;22.95;;;12.20;58.30;;;;;;5037873;28;20064;-34
2021/10/27 17:24:54;;;;;;;44.08;26.63;;;12.20;58.30;;;;;;5038105;28;20113;-33
2021/10/27 17:27:21;;;;;;;39.28;22.77;;;12.20;58.30;;;;;;5037601;28;20275;-39
2021/10/27 17:29:47;;;;;;;38.38;20.92;;;12.10;58.40;;;;;;5038043;28;20029;-38
2021/10/27 17:32:13;;;;;;;45.67;23.10;;;12.10;58.70;;;;;;5037837;28;20034;-33
2021/10/27 17:34:38;;;;;;;47.58;24.10;;;12.10;58.80;;;;;;5037436;28;20335;-38
2021/10/27 17:37:04;;;;;;;44.55;23.13;;;12.10;58.90;;;;;;5037408;28;20116;-34